createdAt,value
2022-10-12T00:00:38.693Z,8.10
2022-10-12T00:03:06.472Z,8.00
2022-10-12T00:05:34.325Z,8.00
2022-10-12T00:08:03.578Z,8.00
2022-10-12T00:10:32.078Z,7.90
2022-10-12T00:13:00.605Z,7.90
2022-10-12T00:15:28.600Z,7.90
2022-10-12T00:17:56.376Z,7.90
2022-10-12T00:20:24.236Z,7.80
2022-10-12T00:22:52.076Z,7.80
2022-10-12T00:25:21.225Z,7.80
2022-10-12T00:27:49.208Z,7.70
2022-10-12T00:30:17.403Z,7.70
2022-10-12T00:32:45.285Z,7.70
2022-10-12T00:35:13.106Z,7.70
2022-10-12T00:37:40.922Z,7.70
2022-10-12T00:40:09.904Z,7.70
2022-10-12T00:42:39.137Z,7.70
2022-10-12T00:45:08.068Z,7.70
2022-10-12T00:47:38.793Z,7.70
2022-10-12T00:50:12.412Z,7.70
2022-10-12T00:52:45.399Z,7.60
2022-10-12T00:55:18.564Z,7.60
2022-10-12T00:57:49.260Z,7.60
2022-10-12T01:00:18.183Z,7.60
2022-10-12T01:02:49.782Z,7.60
2022-10-12T01:05:19.179Z,7.50
2022-10-12T01:07:47.190Z,7.50
2022-10-12T01:10:15.226Z,7.50
2022-10-12T01:12:44.659Z,7.50
2022-10-12T01:15:14.511Z,7.50
2022-10-12T01:17:51.974Z,7.50
2022-10-12T01:20:46.585Z,7.50
2022-10-12T01:23:41.373Z,7.50
2022-10-12T01:26:39.863Z,7.50
2022-10-12T01:29:22.465Z,7.50
2022-10-12T01:31:57.989Z,7.60
2022-10-12T01:34:34.299Z,7.60
2022-10-12T01:37:10.469Z,7.70
2022-10-12T01:39:44.668Z,7.80
2022-10-12T01:42:18.182Z,7.80
2022-10-12T01:44:46.090Z,7.90
2022-10-12T01:47:15.294Z,8.00
2022-10-12T01:49:43.249Z,8.00
2022-10-12T01:52:27.923Z,8.10
2022-10-12T01:55:08.262Z,8.20
2022-10-12T01:57:47.776Z,8.10
2022-10-12T02:00:17.326Z,8.20
2022-10-12T02:02:53.198Z,8.30
2022-10-12T02:05:27.682Z,8.30
2022-10-12T02:08:00.585Z,8.30
2022-10-12T02:10:31.723Z,8.40
2022-10-12T02:13:03.888Z,8.40
2022-10-12T02:15:34.158Z,8.40
2022-10-12T02:18:05.509Z,8.50
2022-10-12T02:20:34.996Z,8.50
2022-10-12T02:23:03.777Z,8.50
2022-10-12T02:25:33.964Z,8.60
2022-10-12T02:28:06.620Z,8.60
2022-10-12T02:30:38.812Z,8.60
2022-10-12T02:33:14.123Z,8.60
2022-10-12T02:35:47.677Z,8.70
2022-10-12T02:38:20.958Z,8.70
2022-10-12T02:40:54.375Z,8.70
2022-10-12T02:43:28.232Z,8.70
2022-10-12T02:45:57.788Z,8.70
2022-10-12T02:48:27.884Z,8.80
2022-10-12T02:50:58.671Z,8.80
2022-10-12T02:53:28.936Z,8.80
2022-10-12T02:56:02.630Z,8.80
2022-10-12T02:58:30.599Z,8.90
2022-10-12T03:00:58.427Z,8.90
2022-10-12T03:03:27.748Z,8.90
2022-10-12T03:05:56.052Z,9.00
2022-10-12T03:08:23.871Z,9.00
2022-10-12T03:10:51.773Z,9.10
2022-10-12T03:13:19.609Z,9.10
2022-10-12T03:15:47.463Z,9.20
2022-10-12T03:18:15.366Z,9.20
2022-10-12T03:20:48.820Z,9.20
2022-10-12T03:23:16.697Z,9.30
2022-10-12T03:25:44.458Z,9.30
2022-10-12T03:28:12.530Z,9.30
2022-10-12T03:30:40.433Z,9.30
2022-10-12T03:33:08.224Z,9.30
2022-10-12T03:35:35.985Z,9.40
2022-10-12T03:38:05.740Z,9.40
2022-10-12T03:40:35.694Z,9.40
2022-10-12T03:43:03.654Z,9.50
2022-10-12T03:45:31.537Z,9.50
2022-10-12T03:48:04.460Z,9.50
2022-10-12T03:50:34.891Z,9.60
2022-10-12T03:53:03.754Z,9.60
2022-10-12T03:55:32.920Z,9.60
2022-10-12T03:58:00.759Z,9.60
2022-10-12T04:00:29.538Z,9.60
2022-10-12T04:02:57.570Z,9.70
2022-10-12T04:05:25.448Z,9.70
2022-10-12T04:07:53.283Z,9.70
2022-10-12T04:10:21.064Z,9.80
2022-10-12T04:12:50.462Z,9.80
2022-10-12T04:15:18.876Z,9.80
2022-10-12T04:17:46.926Z,9.80
2022-10-12T04:20:14.732Z,9.80
2022-10-12T04:22:42.545Z,9.80
2022-10-12T04:25:12.141Z,9.80
2022-10-12T04:27:40.488Z,9.90
2022-10-12T04:30:11.921Z,9.90
2022-10-12T04:32:39.886Z,9.90
2022-10-12T04:35:08.328Z,9.90
2022-10-12T04:37:36.398Z,9.90
2022-10-12T04:40:05.274Z,10.00
2022-10-12T04:42:33.093Z,10.00
2022-10-12T04:45:00.872Z,10.00
2022-10-12T04:47:30.066Z,10.00
2022-10-12T04:49:57.816Z,10.00
2022-10-12T04:52:25.710Z,10.00
2022-10-12T04:54:53.501Z,10.00
2022-10-12T04:57:21.368Z,10.00
2022-10-12T04:59:49.214Z,10.10
2022-10-12T05:02:17.608Z,10.10
2022-10-12T05:04:46.710Z,10.10
2022-10-12T05:07:14.954Z,10.10
2022-10-12T05:09:42.766Z,10.10
2022-10-12T05:12:10.586Z,10.10
2022-10-12T05:14:38.564Z,10.10
2022-10-12T05:17:06.642Z,10.10
2022-10-12T05:19:34.462Z,10.10
2022-10-12T05:22:03.773Z,10.20
2022-10-12T05:24:31.598Z,10.20
2022-10-12T05:26:59.368Z,10.30
2022-10-12T05:29:27.160Z,10.30
2022-10-12T05:31:55.084Z,10.30
2022-10-12T05:34:22.929Z,10.30
2022-10-12T05:36:50.746Z,10.20
2022-10-12T05:39:19.927Z,10.20
2022-10-12T05:41:47.758Z,10.20
2022-10-12T05:44:15.793Z,10.20
2022-10-12T05:46:44.000Z,10.20
2022-10-12T05:49:11.855Z,10.10
2022-10-12T05:51:40.449Z,10.10
2022-10-12T05:54:08.505Z,10.00
2022-10-12T05:56:37.608Z,10.00
2022-10-12T05:59:05.428Z,9.90
2022-10-12T06:01:33.433Z,9.90
2022-10-12T06:04:01.324Z,9.90
2022-10-12T06:06:29.343Z,9.80
2022-10-12T06:08:57.251Z,9.80
2022-10-12T06:11:25.030Z,9.70
2022-10-12T06:13:54.793Z,9.70
2022-10-12T06:16:23.004Z,9.70
2022-10-12T06:18:50.806Z,9.60
2022-10-12T06:21:33.078Z,9.60
2022-10-12T06:24:02.708Z,9.60
2022-10-12T06:26:30.561Z,9.50
2022-10-12T06:29:00.660Z,9.50
2022-10-12T06:31:28.611Z,9.70
2022-10-12T06:33:56.531Z,9.70
2022-10-12T06:36:24.352Z,9.60
2022-10-12T06:38:52.144Z,9.60
2022-10-12T06:41:19.946Z,9.60
2022-10-12T06:43:47.726Z,9.60
2022-10-12T06:46:16.882Z,9.60
2022-10-12T06:48:44.671Z,9.50
2022-10-12T06:51:12.526Z,9.50
2022-10-12T06:53:40.407Z,9.60
2022-10-12T06:56:09.099Z,9.60
2022-10-12T06:58:37.036Z,9.60
2022-10-12T07:01:05.243Z,9.70
2022-10-12T07:03:35.066Z,9.70
2022-10-12T07:06:10.616Z,9.70
2022-10-12T07:08:38.734Z,9.70
2022-10-12T07:11:07.862Z,9.80
2022-10-12T07:13:35.914Z,9.90
2022-10-12T07:16:04.129Z,9.90
2022-10-12T07:18:31.970Z,10.00
2022-10-12T07:21:02.422Z,10.00
2022-10-12T07:23:31.456Z,10.10
2022-10-12T07:25:59.672Z,10.30
2022-10-12T07:28:28.088Z,10.40
2022-10-12T07:31:00.738Z,10.50
2022-10-12T07:33:31.363Z,10.70
2022-10-12T07:36:19.121Z,10.80
2022-10-12T07:38:48.746Z,11.00
2022-10-12T07:41:17.107Z,11.20
2022-10-12T07:43:44.902Z,11.40
2022-10-12T07:46:12.975Z,11.50
2022-10-12T07:48:45.665Z,11.50
2022-10-12T07:51:15.224Z,11.60
2022-10-12T07:53:43.017Z,11.70
2022-10-12T07:56:15.801Z,11.80
2022-10-12T07:58:44.176Z,11.90
2022-10-12T08:01:12.587Z,12.00
2022-10-12T08:03:40.609Z,12.20
2022-10-12T08:06:12.689Z,12.30
2022-10-12T08:08:41.651Z,12.40
2022-10-12T08:11:09.658Z,12.50
2022-10-12T08:13:39.475Z,12.50
2022-10-12T08:16:10.626Z,12.60
2022-10-12T08:18:38.519Z,12.70
2022-10-12T08:21:08.891Z,12.70
2022-10-12T08:23:37.180Z,12.80
2022-10-12T08:26:05.835Z,13.00
2022-10-12T08:28:34.320Z,13.10
2022-10-12T08:31:07.546Z,13.10
2022-10-12T08:33:35.403Z,13.30
2022-10-12T08:36:04.110Z,13.50
2022-10-12T08:38:32.354Z,13.60
2022-10-12T08:41:12.200Z,13.70
2022-10-12T08:43:54.019Z,13.80
2022-10-12T08:46:25.376Z,13.80
2022-10-12T08:48:59.800Z,13.90
2022-10-12T08:51:30.285Z,14.00
2022-10-12T08:54:03.335Z,14.20
2022-10-12T08:56:31.322Z,14.30
2022-10-12T08:58:59.309Z,14.30
2022-10-12T09:01:36.939Z,14.40
2022-10-12T09:04:13.853Z,14.70
2022-10-12T09:06:47.595Z,14.90
2022-10-12T09:09:31.273Z,15.00
2022-10-12T09:12:14.563Z,15.10
2022-10-12T09:14:43.427Z,15.10
2022-10-12T09:17:25.938Z,15.20
2022-10-12T09:20:03.354Z,15.10
2022-10-12T09:22:32.414Z,15.00
2022-10-12T09:25:01.370Z,15.10
2022-10-12T09:27:31.928Z,15.10
2022-10-12T09:30:03.023Z,15.30
2022-10-12T09:33:04.878Z,15.50
2022-10-12T09:35:33.774Z,15.60
2022-10-12T09:38:03.354Z,15.80
2022-10-12T09:40:33.223Z,15.70
2022-10-12T09:43:03.433Z,15.70
2022-10-12T09:45:34.161Z,15.80
2022-10-12T09:48:20.937Z,16.00
2022-10-12T09:50:55.308Z,16.20
2022-10-12T09:53:31.749Z,16.20
2022-10-12T09:56:04.855Z,16.00
2022-10-12T09:58:40.938Z,15.90
2022-10-12T10:01:18.924Z,15.90
2022-10-12T10:03:49.751Z,16.00
2022-10-12T10:06:24.777Z,16.10
2022-10-12T10:08:52.895Z,16.10
2022-10-12T10:11:24.458Z,16.20
2022-10-12T10:13:54.818Z,16.30
2022-10-12T10:16:25.680Z,16.40
2022-10-12T10:18:59.117Z,16.40
2022-10-12T10:21:29.676Z,16.30
2022-10-12T10:23:59.759Z,16.30
2022-10-12T10:26:30.043Z,16.40
2022-10-12T10:29:16.177Z,16.40
2022-10-12T10:31:46.289Z,16.50
2022-10-12T10:34:23.647Z,16.40
2022-10-12T10:36:53.580Z,16.50
2022-10-12T10:39:25.334Z,16.50
2022-10-12T10:41:55.794Z,16.40
2022-10-12T10:44:30.233Z,16.50
2022-10-12T10:47:02.062Z,16.70
2022-10-12T10:49:39.726Z,16.70
2022-10-12T10:52:11.744Z,16.60
2022-10-12T10:54:40.810Z,16.50
2022-10-12T10:57:14.568Z,16.60
2022-10-12T10:59:48.399Z,16.80
2022-10-12T11:02:32.622Z,16.70
2022-10-12T11:05:06.927Z,16.50
2022-10-12T11:07:40.619Z,16.60
2022-10-12T11:10:18.164Z,16.70
2022-10-12T11:12:49.648Z,16.60
2022-10-12T11:15:23.049Z,16.60
2022-10-12T11:17:55.320Z,16.50
2022-10-12T11:20:33.728Z,16.30
2022-10-12T11:23:10.133Z,16.30
2022-10-12T11:25:49.441Z,16.40
2022-10-12T11:28:18.229Z,16.50
2022-10-12T11:30:50.402Z,16.60
2022-10-12T11:33:23.565Z,16.70
2022-10-12T11:35:55.188Z,16.60
2022-10-12T11:38:28.584Z,16.60
2022-10-12T11:41:14.238Z,16.50
2022-10-12T11:43:51.230Z,16.60
2022-10-12T11:46:22.485Z,16.70
2022-10-12T11:48:56.949Z,16.80
2022-10-12T11:51:26.139Z,16.80
2022-10-12T11:54:00.062Z,16.70
2022-10-12T11:56:33.329Z,16.60
2022-10-12T11:59:05.093Z,16.50
2022-10-12T12:02:04.305Z,16.50
2022-10-12T12:04:42.358Z,16.60
2022-10-12T12:07:41.922Z,16.60
2022-10-12T12:11:00.929Z,16.60
2022-10-12T12:13:28.812Z,16.60
2022-10-12T12:16:30.062Z,16.50
2022-10-12T12:19:19.289Z,16.60
2022-10-12T12:22:13.948Z,16.50
2022-10-12T12:24:53.887Z,16.50
2022-10-12T12:27:24.542Z,16.60
2022-10-12T12:29:53.215Z,16.60
2022-10-12T12:32:21.701Z,16.50
2022-10-12T12:35:00.025Z,16.50
2022-10-12T12:37:32.854Z,16.60
2022-10-12T12:40:02.332Z,16.60
2022-10-12T12:42:32.059Z,16.60
2022-10-12T12:45:38.762Z,16.60
2022-10-12T12:48:10.132Z,16.60
2022-10-12T12:50:39.485Z,16.60
2022-10-12T12:53:12.705Z,16.70
2022-10-12T12:55:54.887Z,16.70
2022-10-12T12:58:38.830Z,16.70
2022-10-12T13:01:28.690Z,16.60
2022-10-12T13:04:08.173Z,16.50
2022-10-12T13:07:05.963Z,16.50
2022-10-12T13:09:51.334Z,16.50
2022-10-12T13:13:02.455Z,16.50
2022-10-12T13:15:48.216Z,16.50
2022-10-12T13:18:48.057Z,16.50
2022-10-12T13:21:20.595Z,16.50
2022-10-12T13:23:51.173Z,16.60
2022-10-12T13:26:24.511Z,16.60
2022-10-12T13:28:54.841Z,16.60
2022-10-12T13:31:28.846Z,16.50
2022-10-12T13:34:07.055Z,16.50
2022-10-12T13:36:45.532Z,16.50
2022-10-12T13:39:17.291Z,16.30
2022-10-12T13:41:47.492Z,16.30
2022-10-12T13:44:24.805Z,16.30
2022-10-12T13:46:56.499Z,16.30
2022-10-12T13:49:28.130Z,16.30
2022-10-12T13:51:58.019Z,16.40
2022-10-12T13:54:28.124Z,16.50
2022-10-12T13:57:00.066Z,16.50
2022-10-12T13:59:33.530Z,16.60
2022-10-12T14:02:03.150Z,16.60
2022-10-12T14:04:33.403Z,16.70
2022-10-12T14:07:04.672Z,16.70
2022-10-12T14:09:42.553Z,16.70
2022-10-12T14:12:12.192Z,16.70
2022-10-12T14:14:43.599Z,16.70
2022-10-12T14:17:15.782Z,16.80
2022-10-12T14:19:45.865Z,16.80
2022-10-12T14:22:19.755Z,16.70
2022-10-12T14:24:48.082Z,16.80
2022-10-12T14:27:25.355Z,16.70
2022-10-12T14:29:58.518Z,16.70
2022-10-12T14:32:44.039Z,16.70
2022-10-12T14:35:20.254Z,16.80
2022-10-12T14:37:49.157Z,16.70
2022-10-12T14:40:33.625Z,16.70
2022-10-12T14:43:04.647Z,16.70
2022-10-12T14:45:34.847Z,16.60
2022-10-12T14:48:04.929Z,16.50
2022-10-12T14:50:33.640Z,16.40
2022-10-12T14:53:04.799Z,16.40
2022-10-12T14:55:34.384Z,16.30
2022-10-12T14:58:03.000Z,16.20
2022-10-12T15:00:33.713Z,16.20
2022-10-12T15:03:02.414Z,16.20
2022-10-12T15:05:32.549Z,16.10
2022-10-12T15:08:01.215Z,16.10
2022-10-12T15:10:30.003Z,16.00
2022-10-12T15:12:57.978Z,16.00
2022-10-12T15:15:32.157Z,16.00
2022-10-12T15:18:01.933Z,15.90
2022-10-12T15:20:30.988Z,15.90
2022-10-12T15:22:59.235Z,15.80
2022-10-12T15:25:35.842Z,15.80
2022-10-12T15:28:03.939Z,15.80
2022-10-12T15:30:31.714Z,15.70
2022-10-12T15:33:00.958Z,15.60
2022-10-12T15:35:32.829Z,15.60
2022-10-12T15:38:00.760Z,15.50
2022-10-12T15:40:30.610Z,15.50
2022-10-12T15:42:59.074Z,15.40
2022-10-12T15:45:29.746Z,15.40
2022-10-12T15:47:57.629Z,15.30
2022-10-12T15:50:29.783Z,15.30
2022-10-12T15:52:57.706Z,15.20
2022-10-12T15:55:27.502Z,15.20
2022-10-12T15:57:56.127Z,15.10
2022-10-12T16:00:26.170Z,15.00
2022-10-12T16:02:56.974Z,15.00
2022-10-12T16:05:28.110Z,14.90
2022-10-12T16:07:56.555Z,14.90
2022-10-12T16:10:27.011Z,14.80
2022-10-12T16:12:55.581Z,14.80
2022-10-12T16:15:27.631Z,14.70
2022-10-12T16:17:55.463Z,14.60
2022-10-12T16:20:23.810Z,14.50
2022-10-12T16:22:53.590Z,14.40
2022-10-12T16:25:24.028Z,14.40
2022-10-12T16:27:52.932Z,14.30
2022-10-12T16:30:21.511Z,14.10
2022-10-12T16:32:50.032Z,14.00
2022-10-12T16:35:18.157Z,13.90
2022-10-12T16:37:45.960Z,13.80
2022-10-12T16:40:15.794Z,13.60
2022-10-12T16:42:44.167Z,13.60
2022-10-12T16:45:12.581Z,13.50
2022-10-12T16:47:42.713Z,13.40
2022-10-12T16:50:11.237Z,13.30
2022-10-12T16:52:39.546Z,13.20
2022-10-12T16:55:08.325Z,13.20
2022-10-12T16:57:38.486Z,13.10
2022-10-12T17:00:07.982Z,12.90
2022-10-12T17:02:35.944Z,12.80
2022-10-12T17:05:04.158Z,12.80
2022-10-12T17:07:32.206Z,12.60
2022-10-12T17:10:00.082Z,12.60
2022-10-12T17:12:28.262Z,12.60
2022-10-12T17:14:57.796Z,12.60
2022-10-12T17:17:25.632Z,12.60
2022-10-12T17:19:53.498Z,12.50
2022-10-12T17:22:21.438Z,12.50
2022-10-12T17:24:49.569Z,12.40
2022-10-12T17:27:17.796Z,12.50
2022-10-12T17:29:45.863Z,12.40
2022-10-12T17:32:15.429Z,12.40
2022-10-12T17:34:45.272Z,12.40
2022-10-12T17:37:16.645Z,12.40
2022-10-12T17:39:47.873Z,12.40
2022-10-12T17:42:16.182Z,12.30
2022-10-12T17:44:44.245Z,12.30
2022-10-12T17:47:12.112Z,12.30
2022-10-12T17:49:41.253Z,12.30
2022-10-12T17:52:10.414Z,12.20
2022-10-12T17:54:38.476Z,12.20
2022-10-12T17:57:06.316Z,12.30
2022-10-12T17:59:34.137Z,12.20
2022-10-12T18:02:02.000Z,12.20
2022-10-12T18:04:29.786Z,12.20
2022-10-12T18:06:59.049Z,12.20
2022-10-12T18:09:26.935Z,12.20
2022-10-12T18:11:54.851Z,12.20
2022-10-12T18:14:22.700Z,12.20
2022-10-12T18:16:50.538Z,12.10
2022-10-12T18:19:18.461Z,12.10
2022-10-12T18:21:46.343Z,12.10
2022-10-12T18:24:17.357Z,12.00
2022-10-12T18:26:46.653Z,12.00
2022-10-12T18:29:18.438Z,12.00
2022-10-12T18:31:46.440Z,12.00
2022-10-12T18:34:14.304Z,11.90
2022-10-12T18:36:42.807Z,11.90
2022-10-12T18:39:10.822Z,11.80
2022-10-12T18:41:40.137Z,11.90
2022-10-12T18:44:09.035Z,11.80
2022-10-12T18:46:37.415Z,11.80
2022-10-12T18:49:08.176Z,11.80
2022-10-12T18:51:40.318Z,11.70
2022-10-12T18:54:11.432Z,11.70
2022-10-12T18:56:41.692Z,11.70
2022-10-12T18:59:10.115Z,11.70
2022-10-12T19:01:37.969Z,11.70
2022-10-12T19:04:06.702Z,11.70
2022-10-12T19:06:36.945Z,11.70
2022-10-12T19:09:05.248Z,11.70
2022-10-12T19:11:33.075Z,11.60
2022-10-12T19:14:04.225Z,11.50
2022-10-12T19:16:32.888Z,11.50
2022-10-12T19:19:02.016Z,11.50
2022-10-12T19:21:30.443Z,11.40
2022-10-12T19:23:58.799Z,11.50
2022-10-12T19:26:28.091Z,11.50
2022-10-12T19:28:57.557Z,11.40
2022-10-12T19:31:28.528Z,11.40
2022-10-12T19:33:57.722Z,11.30
2022-10-12T19:36:26.504Z,11.30
2022-10-12T19:38:56.458Z,11.20
2022-10-12T19:41:25.050Z,11.10
2022-10-12T19:43:53.893Z,11.00
2022-10-12T19:46:22.149Z,10.90
2022-10-12T19:48:52.873Z,10.90
2022-10-12T19:51:22.404Z,10.90
2022-10-12T19:53:54.645Z,10.80
2022-10-12T19:56:22.879Z,10.80
2022-10-12T19:58:52.441Z,10.80
2022-10-12T20:01:22.298Z,10.80
2022-10-12T20:03:52.045Z,10.80
2022-10-12T20:06:20.586Z,10.80
2022-10-12T20:08:49.516Z,10.80
2022-10-12T20:11:21.520Z,10.80
2022-10-12T20:13:52.134Z,10.80
2022-10-12T20:16:21.095Z,10.80
2022-10-12T20:18:51.452Z,10.80
2022-10-12T20:21:22.108Z,10.80
2022-10-12T20:23:50.459Z,10.80
2022-10-12T20:26:20.104Z,10.80
2022-10-12T20:28:48.692Z,10.70
2022-10-12T20:31:18.442Z,10.80
2022-10-12T20:33:46.432Z,10.80
2022-10-12T20:36:21.500Z,10.80
2022-10-12T20:38:49.404Z,10.70
2022-10-12T20:41:18.526Z,10.70
2022-10-12T20:43:46.384Z,10.70
2022-10-12T20:46:17.040Z,10.70
2022-10-12T20:48:45.789Z,10.60
2022-10-12T20:51:19.781Z,10.60
2022-10-12T20:53:47.760Z,10.60
2022-10-12T20:56:15.562Z,10.60
2022-10-12T20:58:43.440Z,10.50
2022-10-12T21:01:13.222Z,10.60
2022-10-12T21:03:42.269Z,10.50
2022-10-12T21:06:12.243Z,10.50
2022-10-12T21:08:41.701Z,10.50
2022-10-12T21:11:11.084Z,10.50
2022-10-12T21:13:41.045Z,10.50
2022-10-12T21:16:09.877Z,10.50
2022-10-12T21:18:38.491Z,10.50
2022-10-12T21:21:11.273Z,10.50
2022-10-12T21:23:41.029Z,10.50
2022-10-12T21:26:13.277Z,10.50
2022-10-12T21:28:41.395Z,10.50
2022-10-12T21:31:09.897Z,10.50
2022-10-12T21:33:38.046Z,10.50
2022-10-12T21:36:11.123Z,10.50
2022-10-12T21:38:40.725Z,10.50
2022-10-12T21:41:10.076Z,10.50
2022-10-12T21:43:38.417Z,10.40
2022-10-12T21:46:08.054Z,10.50
2022-10-12T21:48:36.382Z,10.40
2022-10-12T21:51:05.021Z,10.40
2022-10-12T21:53:33.174Z,10.40
2022-10-12T21:56:06.554Z,10.40
2022-10-12T21:58:34.642Z,10.50
2022-10-12T22:01:08.047Z,10.40
2022-10-12T22:03:36.715Z,10.50
2022-10-12T22:06:05.362Z,10.50
2022-10-12T22:08:33.273Z,10.50
2022-10-12T22:11:06.936Z,10.50
2022-10-12T22:13:35.505Z,10.50
2022-10-12T22:16:04.332Z,10.50
2022-10-12T22:18:32.194Z,10.50
2022-10-12T22:21:03.974Z,10.50
2022-10-12T22:23:32.242Z,10.50
2022-10-12T22:26:07.539Z,10.50
2022-10-12T22:28:35.980Z,10.50
2022-10-12T22:31:06.960Z,10.50
2022-10-12T22:33:35.426Z,10.50
2022-10-12T22:36:04.191Z,10.50
2022-10-12T22:38:33.276Z,10.40
2022-10-12T22:41:06.373Z,10.40
2022-10-12T22:43:35.840Z,10.40
2022-10-12T22:46:03.713Z,10.40
2022-10-12T22:48:31.583Z,10.40
2022-10-12T22:50:59.442Z,10.40
2022-10-12T22:53:27.749Z,10.40
2022-10-12T22:55:59.862Z,10.40
2022-10-12T22:58:29.853Z,10.40
2022-10-12T23:01:04.357Z,10.40
2022-10-12T23:03:33.085Z,10.40
2022-10-12T23:06:04.598Z,10.40
2022-10-12T23:08:32.554Z,10.40
2022-10-12T23:11:07.221Z,10.30
2022-10-12T23:13:38.813Z,10.30
2022-10-12T23:16:09.126Z,10.30
2022-10-12T23:18:37.157Z,10.20
2022-10-12T23:21:06.455Z,10.20
2022-10-12T23:23:35.204Z,10.30
2022-10-12T23:26:04.927Z,10.30
2022-10-12T23:28:32.849Z,10.30
2022-10-12T23:31:04.036Z,10.30
2022-10-12T23:33:31.902Z,10.30
2022-10-12T23:36:01.680Z,10.40
2022-10-12T23:38:30.360Z,10.40
2022-10-12T23:40:58.470Z,10.40
2022-10-12T23:43:26.988Z,10.40
2022-10-12T23:45:56.519Z,10.40
2022-10-12T23:48:26.184Z,10.50
2022-10-12T23:50:54.133Z,10.50
2022-10-12T23:53:23.455Z,10.50
2022-10-12T23:55:52.453Z,10.50
2022-10-12T23:58:20.363Z,10.50
